sensor_id;sensor_type;location;lat;lon;timestamp;temperature;humidity
68251;DHT22;55066;51.560;4.642;2022-11-20T00:00:04;1.88;96.69
68251;DHT22;55066;51.560;4.642;2022-11-20T00:02:32;1.91;96.20
68251;DHT22;55066;51.560;4.642;2022-11-20T00:04:57;1.88;97.63
68251;DHT22;55066;51.560;4.642;2022-11-20T00:07:23;1.63;94.90
68251;DHT22;55066;51.560;4.642;2022-11-20T00:09:48;1.70;96.23
68251;DHT22;55066;51.560;4.642;2022-11-20T00:12:13;1.68;99.92
68251;DHT22;55066;51.560;4.642;2022-11-20T00:14:39;1.42;97.08
68251;DHT22;55066;51.560;4.642;2022-11-20T00:17:06;1.46;97.47
68251;DHT22;55066;51.560;4.642;2022-11-20T00:19:32;1.35;95.79
68251;DHT22;55066;51.560;4.642;2022-11-20T00:21:57;1.28;97.49
68251;DHT22;55066;51.560;4.642;2022-11-20T00:24:23;1.36;99.99
68251;DHT22;55066;51.560;4.642;2022-11-20T00:26:48;1.12;98.57
68251;DHT22;55066;51.560;4.642;2022-11-20T00:29:14;1.21;99.26
68251;DHT22;55066;51.560;4.642;2022-11-20T00:31:39;1.12;99.72
68251;DHT22;55066;51.560;4.642;2022-11-20T00:34:05;1.05;99.10
68251;DHT22;55066;51.560;4.642;2022-11-20T00:36:33;0.94;99.99
68251;DHT22;55066;51.560;4.642;2022-11-20T00:38:59;0.95;99.99
68251;DHT22;55066;51.560;4.642;2022-11-20T00:41:26;0.88;99.99
68251;DHT22;55066;51.560;4.642;2022-11-20T00:43:52;1.36;99.99
68251;DHT22;55066;51.560;4.642;2022-11-20T00:46:19;1.49;99.99
68251;DHT22;55066;51.560;4.642;2022-11-20T00:48:47;1.12;98.84
68251;DHT22;55066;51.560;4.642;2022-11-20T00:51:14;1.24;99.99
68251;DHT22;55066;51.560;4.642;2022-11-20T00:53:40;1.42;99.99
68251;DHT22;55066;51.560;4.642;2022-11-20T00:56:09;1.57;99.99
68251;DHT22;55066;51.560;4.642;2022-11-20T00:58:39;1.70;99.99
68251;DHT22;55066;51.560;4.642;2022-11-20T01:01:11;1.78;99.99
68251;DHT22;55066;51.560;4.642;2022-11-20T01:03:41;1.94;99.88
68251;DHT22;55066;51.560;4.642;2022-11-20T01:06:12;1.93;99.33
68251;DHT22;55066;51.560;4.642;2022-11-20T01:08:38;2.01;98.44
68251;DHT22;55066;51.560;4.642;2022-11-20T01:11:10;2.04;99.08
68251;DHT22;55066;51.560;4.642;2022-11-20T01:13:36;1.78;95.45
68251;DHT22;55066;51.560;4.642;2022-11-20T01:16:08;1.81;98.87
68251;DHT22;55066;51.560;4.642;2022-11-20T01:18:34;2.05;98.97
68251;DHT22;55066;51.560;4.642;2022-11-20T01:21:08;1.98;95.47
68251;DHT22;55066;51.560;4.642;2022-11-20T01:23:35;1.70;96.81
68251;DHT22;55066;51.560;4.642;2022-11-20T01:26:05;1.76;98.88
68251;DHT22;55066;51.560;4.642;2022-11-20T01:28:31;1.60;96.18
68251;DHT22;55066;51.560;4.642;2022-11-20T01:30:57;1.50;94.79
68251;DHT22;55066;51.560;4.642;2022-11-20T01:33:22;1.40;96.44
68251;DHT22;55066;51.560;4.642;2022-11-20T01:35:48;1.40;97.41
68251;DHT22;55066;51.560;4.642;2022-11-20T01:38:15;1.67;99.78
68251;DHT22;55066;51.560;4.642;2022-11-20T01:40:40;1.62;97.23
68251;DHT22;55066;51.560;4.642;2022-11-20T01:43:19;1.46;93.62
68251;DHT22;55066;51.560;4.642;2022-11-20T01:46:16;1.17;93.79
68251;DHT22;55066;51.560;4.642;2022-11-20T01:49:24;1.14;94.07
68251;DHT22;55066;51.560;4.642;2022-11-20T01:51:50;1.38;97.23
68251;DHT22;55066;51.560;4.642;2022-11-20T01:54:25;1.59;99.41
68251;DHT22;55066;51.560;4.642;2022-11-20T01:56:57;1.81;98.67
68251;DHT22;55066;51.560;4.642;2022-11-20T01:59:24;1.63;94.66
68251;DHT22;55066;51.560;4.642;2022-11-20T02:01:51;1.56;96.85
68251;DHT22;55066;51.560;4.642;2022-11-20T02:04:17;1.52;95.82
68251;DHT22;55066;51.560;4.642;2022-11-20T02:06:58;1.39;94.83
68251;DHT22;55066;51.560;4.642;2022-11-20T02:09:24;1.55;97.75
68251;DHT22;55066;51.560;4.642;2022-11-20T02:11:50;1.46;95.56
68251;DHT22;55066;51.560;4.642;2022-11-20T02:14:15;1.49;95.14
68251;DHT22;55066;51.560;4.642;2022-11-20T02:16:45;1.43;94.39
68251;DHT22;55066;51.560;4.642;2022-11-20T02:19:24;1.50;95.28
68251;DHT22;55066;51.560;4.642;2022-11-20T02:22:14;1.71;95.81
68251;DHT22;55066;51.560;4.642;2022-11-20T02:24:43;1.50;94.13
68251;DHT22;55066;51.560;4.642;2022-11-20T02:27:12;1.45;95.29
68251;DHT22;55066;51.560;4.642;2022-11-20T02:29:42;1.32;93.93
68251;DHT22;55066;51.560;4.642;2022-11-20T02:32:28;1.38;95.91
68251;DHT22;55066;51.560;4.642;2022-11-20T02:34:54;1.25;94.23
68251;DHT22;55066;51.560;4.642;2022-11-20T02:37:21;1.12;93.00
68251;DHT22;55066;51.560;4.642;2022-11-20T02:39:48;1.35;96.24
68251;DHT22;55066;51.560;4.642;2022-11-20T02:42:14;1.50;96.85
68251;DHT22;55066;51.560;4.642;2022-11-20T02:44:40;1.28;93.04
68251;DHT22;55066;51.560;4.642;2022-11-20T02:47:05;1.32;93.61
68251;DHT22;55066;51.560;4.642;2022-11-20T02:49:31;1.22;93.68
68251;DHT22;55066;51.560;4.642;2022-11-20T02:51:56;1.32;94.56
68251;DHT22;55066;51.560;4.642;2022-11-20T02:54:22;1.36;94.79
68251;DHT22;55066;51.560;4.642;2022-11-20T02:56:48;1.29;92.45
68251;DHT22;55066;51.560;4.642;2022-11-20T02:59:13;1.36;93.13
68251;DHT22;55066;51.560;4.642;2022-11-20T03:01:38;1.39;95.46
68251;DHT22;55066;51.560;4.642;2022-11-20T03:04:04;1.63;98.12
68251;DHT22;55066;51.560;4.642;2022-11-20T03:06:29;1.73;97.43
68251;DHT22;55066;51.560;4.642;2022-11-20T03:08:55;1.36;88.92
68251;DHT22;55066;51.560;4.642;2022-11-20T03:11:20;1.36;94.09
68251;DHT22;55066;51.560;4.642;2022-11-20T03:13:46;1.43;95.49
68251;DHT22;55066;51.560;4.642;2022-11-20T03:16:16;1.45;95.43
68251;DHT22;55066;51.560;4.642;2022-11-20T03:18:42;1.60;97.23
68251;DHT22;55066;51.560;4.642;2022-11-20T03:21:08;1.63;96.93
68251;DHT22;55066;51.560;4.642;2022-11-20T03:23:35;1.36;92.92
68251;DHT22;55066;51.560;4.642;2022-11-20T03:26:21;1.17;92.61
68251;DHT22;55066;51.560;4.642;2022-11-20T03:28:58;1.45;99.34
68251;DHT22;55066;51.560;4.642;2022-11-20T03:31:30;1.53;95.09
68251;DHT22;55066;51.560;4.642;2022-11-20T03:33:56;1.56;96.66
68251;DHT22;55066;51.560;4.642;2022-11-20T03:36:22;1.47;95.43
68251;DHT22;55066;51.560;4.642;2022-11-20T03:38:48;1.39;95.13
68251;DHT22;55066;51.560;4.642;2022-11-20T03:41:16;1.32;94.11
68251;DHT22;55066;51.560;4.642;2022-11-20T03:43:49;1.29;96.12
68251;DHT22;55066;51.560;4.642;2022-11-20T03:46:15;1.34;95.48
68251;DHT22;55066;51.560;4.642;2022-11-20T03:48:40;1.31;96.23
68251;DHT22;55066;51.560;4.642;2022-11-20T03:51:14;1.59;99.16
68251;DHT22;55066;51.560;4.642;2022-11-20T03:53:41;1.76;97.51
68251;DHT22;55066;51.560;4.642;2022-11-20T03:56:08;1.63;96.76
68251;DHT22;55066;51.560;4.642;2022-11-20T03:58:35;1.67;97.02
68251;DHT22;55066;51.560;4.642;2022-11-20T04:01:14;1.80;96.77
68251;DHT22;55066;51.560;4.642;2022-11-20T04:03:41;1.85;97.76
68251;DHT22;55066;51.560;4.642;2022-11-20T04:06:09;1.90;96.95
68251;DHT22;55066;51.560;4.642;2022-11-20T04:08:35;1.70;95.75
68251;DHT22;55066;51.560;4.642;2022-11-20T04:13:38;1.62;96.65
68251;DHT22;55066;51.560;4.642;2022-11-20T04:16:05;1.56;95.22
68251;DHT22;55066;51.560;4.642;2022-11-20T04:18:31;1.57;97.03
68251;DHT22;55066;51.560;4.642;2022-11-20T04:20:57;1.57;98.68
68251;DHT22;55066;51.560;4.642;2022-11-20T04:23:23;1.52;98.40
68251;DHT22;55066;51.560;4.642;2022-11-20T04:25:48;1.43;97.34
68251;DHT22;55066;51.560;4.642;2022-11-20T04:28:13;1.27;98.47
68251;DHT22;55066;51.560;4.642;2022-11-20T04:30:39;1.12;96.63
68251;DHT22;55066;51.560;4.642;2022-11-20T04:33:04;1.09;97.26
68251;DHT22;55066;51.560;4.642;2022-11-20T04:35:29;0.90;98.89
68251;DHT22;55066;51.560;4.642;2022-11-20T04:37:55;0.91;99.11
68251;DHT22;55066;51.560;4.642;2022-11-20T04:40:20;0.95;98.79
68251;DHT22;55066;51.560;4.642;2022-11-20T04:42:46;1.15;99.99
68251;DHT22;55066;51.560;4.642;2022-11-20T04:45:11;1.24;99.77
68251;DHT22;55066;51.560;4.642;2022-11-20T04:47:36;1.31;99.69
68251;DHT22;55066;51.560;4.642;2022-11-20T04:50:02;1.42;99.99
68251;DHT22;55066;51.560;4.642;2022-11-20T04:52:27;1.39;98.58
68251;DHT22;55066;51.560;4.642;2022-11-20T04:54:53;1.28;99.10
68251;DHT22;55066;51.560;4.642;2022-11-20T04:57:20;1.34;99.26
68251;DHT22;55066;51.560;4.642;2022-11-20T04:59:45;1.27;99.98
68251;DHT22;55066;51.560;4.642;2022-11-20T05:02:11;1.24;99.99
68251;DHT22;55066;51.560;4.642;2022-11-20T05:04:37;0.98;98.99
68251;DHT22;55066;51.560;4.642;2022-11-20T05:07:02;0.94;99.71
68251;DHT22;55066;51.560;4.642;2022-11-20T05:09:27;0.94;99.99
68251;DHT22;55066;51.560;4.642;2022-11-20T05:11:53;0.87;99.99
68251;DHT22;55066;51.560;4.642;2022-11-20T05:14:18;0.80;99.99
68251;DHT22;55066;51.560;4.642;2022-11-20T05:16:43;0.76;99.99
68251;DHT22;55066;51.560;4.642;2022-11-20T05:19:09;0.59;99.99
68251;DHT22;55066;51.560;4.642;2022-11-20T05:21:34;0.62;99.99
68251;DHT22;55066;51.560;4.642;2022-11-20T05:23:59;0.71;99.99
68251;DHT22;55066;51.560;4.642;2022-11-20T05:26:25;0.62;99.99
68251;DHT22;55066;51.560;4.642;2022-11-20T05:28:53;0.67;99.99
68251;DHT22;55066;51.560;4.642;2022-11-20T05:31:21;0.70;99.99
68251;DHT22;55066;51.560;4.642;2022-11-20T05:33:47;0.80;99.99
68251;DHT22;55066;51.560;4.642;2022-11-20T05:36:13;0.95;99.99
68251;DHT22;55066;51.560;4.642;2022-11-20T05:38:40;0.91;99.99
68251;DHT22;55066;51.560;4.642;2022-11-20T05:41:07;0.87;99.99
68251;DHT22;55066;51.560;4.642;2022-11-20T05:43:34;0.90;99.99
68251;DHT22;55066;51.560;4.642;2022-11-20T05:46:00;0.74;99.99
68251;DHT22;55066;51.560;4.642;2022-11-20T05:48:26;0.77;99.99
68251;DHT22;55066;51.560;4.642;2022-11-20T05:50:51;0.62;99.99
68251;DHT22;55066;51.560;4.642;2022-11-20T05:53:16;0.52;99.99
68251;DHT22;55066;51.560;4.642;2022-11-20T05:55:42;0.50;99.99
68251;DHT22;55066;51.560;4.642;2022-11-20T05:58:07;0.48;99.99
68251;DHT22;55066;51.560;4.642;2022-11-20T06:00:33;0.45;99.99
68251;DHT22;55066;51.560;4.642;2022-11-20T06:02:58;0.35;99.99
68251;DHT22;55066;51.560;4.642;2022-11-20T06:05:23;0.14;99.99
68251;DHT22;55066;51.560;4.642;2022-11-20T06:07:49;0.08;99.99
68251;DHT22;55066;51.560;4.642;2022-11-20T06:10:14;0.15;99.99
68251;DHT22;55066;51.560;4.642;2022-11-20T06:12:40;0.26;99.99
68251;DHT22;55066;51.560;4.642;2022-11-20T06:15:05;0.19;99.99
68251;DHT22;55066;51.560;4.642;2022-11-20T06:17:31;0.14;99.99
68251;DHT22;55066;51.560;4.642;2022-11-20T06:19:57;0.05;99.99
68251;DHT22;55066;51.560;4.642;2022-11-20T06:22:22;-0.02;99.99
68251;DHT22;55066;51.560;4.642;2022-11-20T06:24:47;-0.22;99.99
68251;DHT22;55066;51.560;4.642;2022-11-20T06:27:13;-0.09;99.99
68251;DHT22;55066;51.560;4.642;2022-11-20T06:29:38;-0.16;99.99
68251;DHT22;55066;51.560;4.642;2022-11-20T06:32:03;-0.07;99.99
68251;DHT22;55066;51.560;4.642;2022-11-20T06:34:29;0.11;99.99
68251;DHT22;55066;51.560;4.642;2022-11-20T06:36:54;0.12;99.99
68251;DHT22;55066;51.560;4.642;2022-11-20T06:39:20;-0.01;99.99
68251;DHT22;55066;51.560;4.642;2022-11-20T06:41:45;-0.20;99.99
68251;DHT22;55066;51.560;4.642;2022-11-20T06:44:11;-0.36;99.99
68251;DHT22;55066;51.560;4.642;2022-11-20T06:46:36;-0.36;99.99
68251;DHT22;55066;51.560;4.642;2022-11-20T06:49:01;-0.22;99.99
68251;DHT22;55066;51.560;4.642;2022-11-20T06:51:27;-0.06;99.99
68251;DHT22;55066;51.560;4.642;2022-11-20T06:53:53;-0.02;99.99
68251;DHT22;55066;51.560;4.642;2022-11-20T06:56:18;0.11;99.99
68251;DHT22;55066;51.560;4.642;2022-11-20T06:58:44;0.33;99.99
68251;DHT22;55066;51.560;4.642;2022-11-20T07:01:14;0.39;99.99
68251;DHT22;55066;51.560;4.642;2022-11-20T07:03:41;0.57;99.99
68251;DHT22;55066;51.560;4.642;2022-11-20T07:06:07;0.76;99.99
68251;DHT22;55066;51.560;4.642;2022-11-20T07:08:34;0.76;99.99
68251;DHT22;55066;51.560;4.642;2022-11-20T07:11:02;0.73;99.99
68251;DHT22;55066;51.560;4.642;2022-11-20T07:13:28;0.67;99.99
68251;DHT22;55066;51.560;4.642;2022-11-20T07:15:54;0.66;99.99
68251;DHT22;55066;51.560;4.642;2022-11-20T07:18:20;0.60;99.99
68251;DHT22;55066;51.560;4.642;2022-11-20T07:20:45;0.63;99.99
68251;DHT22;55066;51.560;4.642;2022-11-20T07:23:11;0.67;99.99
68251;DHT22;55066;51.560;4.642;2022-11-20T07:25:36;0.76;99.99
68251;DHT22;55066;51.560;4.642;2022-11-20T07:28:02;0.83;99.99
68251;DHT22;55066;51.560;4.642;2022-11-20T07:30:27;1.14;99.08
68251;DHT22;55066;51.560;4.642;2022-11-20T07:32:54;1.15;98.78
68251;DHT22;55066;51.560;4.642;2022-11-20T07:35:21;1.15;98.99
68251;DHT22;55066;51.560;4.642;2022-11-20T07:37:46;1.02;99.95
68251;DHT22;55066;51.560;4.642;2022-11-20T07:40:14;1.09;99.89
68251;DHT22;55066;51.560;4.642;2022-11-20T07:42:47;1.32;98.78
68251;DHT22;55066;51.560;4.642;2022-11-20T07:45:12;1.21;99.76
68251;DHT22;55066;51.560;4.642;2022-11-20T07:47:38;1.08;99.99
68251;DHT22;55066;51.560;4.642;2022-11-20T07:50:03;1.01;99.99
68251;DHT22;55066;51.560;4.642;2022-11-20T07:52:29;1.09;99.99
68251;DHT22;55066;51.560;4.642;2022-11-20T07:54:54;1.15;99.99
68251;DHT22;55066;51.560;4.642;2022-11-20T07:57:20;1.15;99.99
68251;DHT22;55066;51.560;4.642;2022-11-20T07:59:45;1.24;99.99
68251;DHT22;55066;51.560;4.642;2022-11-20T08:02:11;1.31;99.99
68251;DHT22;55066;51.560;4.642;2022-11-20T08:04:36;1.43;99.99
68251;DHT22;55066;51.560;4.642;2022-11-20T08:07:02;1.55;98.75
68251;DHT22;55066;51.560;4.642;2022-11-20T08:09:27;1.50;99.99
68251;DHT22;55066;51.560;4.642;2022-11-20T08:11:54;1.46;99.99
68251;DHT22;55066;51.560;4.642;2022-11-20T08:14:49;1.50;99.99
68251;DHT22;55066;51.560;4.642;2022-11-20T08:17:15;1.56;99.99
68251;DHT22;55066;51.560;4.642;2022-11-20T08:19:41;1.50;99.99
68251;DHT22;55066;51.560;4.642;2022-11-20T08:22:06;1.50;99.99
68251;DHT22;55066;51.560;4.642;2022-11-20T08:24:31;1.63;99.99
68251;DHT22;55066;51.560;4.642;2022-11-20T08:26:58;1.74;99.99
68251;DHT22;55066;51.560;4.642;2022-11-20T08:29:24;1.78;99.99
68251;DHT22;55066;51.560;4.642;2022-11-20T08:31:50;1.98;98.76
68251;DHT22;55066;51.560;4.642;2022-11-20T08:34:16;1.98;99.58
68251;DHT22;55066;51.560;4.642;2022-11-20T08:36:41;1.97;99.99
68251;DHT22;55066;51.560;4.642;2022-11-20T08:39:06;2.03;99.99
68251;DHT22;55066;51.560;4.642;2022-11-20T08:41:32;2.14;99.55
68251;DHT22;55066;51.560;4.642;2022-11-20T08:44:07;2.17;99.99
68251;DHT22;55066;51.560;4.642;2022-11-20T08:46:37;2.12;99.99
68251;DHT22;55066;51.560;4.642;2022-11-20T08:49:04;2.14;99.99
68251;DHT22;55066;51.560;4.642;2022-11-20T08:51:31;2.21;99.99
68251;DHT22;55066;51.560;4.642;2022-11-20T08:53:57;2.17;99.99
68251;DHT22;55066;51.560;4.642;2022-11-20T08:56:22;2.18;99.99
68251;DHT22;55066;51.560;4.642;2022-11-20T08:58:49;2.29;99.99
68251;DHT22;55066;51.560;4.642;2022-11-20T09:01:15;2.42;99.99
68251;DHT22;55066;51.560;4.642;2022-11-20T09:03:40;2.59;99.99
68251;DHT22;55066;51.560;4.642;2022-11-20T09:06:07;2.64;99.71
68251;DHT22;55066;51.560;4.642;2022-11-20T09:08:33;2.66;99.99
68251;DHT22;55066;51.560;4.642;2022-11-20T09:10:59;2.72;99.99
68251;DHT22;55066;51.560;4.642;2022-11-20T09:13:28;2.77;99.99
68251;DHT22;55066;51.560;4.642;2022-11-20T09:15:58;2.69;99.99
68251;DHT22;55066;51.560;4.642;2022-11-20T09:18:24;2.70;99.99
68251;DHT22;55066;51.560;4.642;2022-11-20T09:20:50;2.81;99.99
68251;DHT22;55066;51.560;4.642;2022-11-20T09:23:16;2.81;99.99
68251;DHT22;55066;51.560;4.642;2022-11-20T09:25:42;2.72;99.99
68251;DHT22;55066;51.560;4.642;2022-11-20T09:28:07;2.86;99.99
68251;DHT22;55066;51.560;4.642;2022-11-20T09:30:33;3.00;99.99
68251;DHT22;55066;51.560;4.642;2022-11-20T09:32:58;3.08;99.99
68251;DHT22;55066;51.560;4.642;2022-11-20T09:35:24;3.11;99.99
68251;DHT22;55066;51.560;4.642;2022-11-20T09:37:49;3.15;99.99
68251;DHT22;55066;51.560;4.642;2022-11-20T09:40:23;3.09;99.99
68251;DHT22;55066;51.560;4.642;2022-11-20T09:43:01;3.22;99.99
68251;DHT22;55066;51.560;4.642;2022-11-20T09:49:02;3.12;99.99
68251;DHT22;55066;51.560;4.642;2022-11-20T09:51:45;3.17;99.99
68251;DHT22;55066;51.560;4.642;2022-11-20T09:54:21;3.28;99.99
68251;DHT22;55066;51.560;4.642;2022-11-20T09:56:53;3.38;99.99
68251;DHT22;55066;51.560;4.642;2022-11-20T09:59:33;3.25;99.99
68251;DHT22;55066;51.560;4.642;2022-11-20T10:02:00;3.43;99.99
68251;DHT22;55066;51.560;4.642;2022-11-20T10:04:29;3.58;99.99
68251;DHT22;55066;51.560;4.642;2022-11-20T10:07:04;3.49;99.99
68251;DHT22;55066;51.560;4.642;2022-11-20T10:09:34;3.53;99.99
68251;DHT22;55066;51.560;4.642;2022-11-20T10:20:46;3.93;98.21
68251;DHT22;55066;51.560;4.642;2022-11-20T10:23:45;4.01;99.06
68251;DHT22;55066;51.560;4.642;2022-11-20T10:29:07;4.32;97.88
68251;DHT22;55066;51.560;4.642;2022-11-20T10:31:37;4.22;98.23
68251;DHT22;55066;51.560;4.642;2022-11-20T10:34:18;4.15;99.15
68251;DHT22;55066;51.560;4.642;2022-11-20T10:37:45;4.10;99.99
68251;DHT22;55066;51.560;4.642;2022-11-20T10:42:53;4.24;99.99
68251;DHT22;55066;51.560;4.642;2022-11-20T10:47:50;4.39;98.41
68251;DHT22;55066;51.560;4.642;2022-11-20T10:50:19;4.48;99.97
68251;DHT22;55066;51.560;4.642;2022-11-20T10:53:01;4.35;99.35
68251;DHT22;55066;51.560;4.642;2022-11-20T10:55:39;4.27;99.99
68251;DHT22;55066;51.560;4.642;2022-11-20T10:58:35;4.02;99.99
68251;DHT22;55066;51.560;4.642;2022-11-20T11:01:14;3.86;99.99
68251;DHT22;55066;51.560;4.642;2022-11-20T11:03:44;3.94;99.99
68251;DHT22;55066;51.560;4.642;2022-11-20T11:06:31;4.01;99.99
68251;DHT22;55066;51.560;4.642;2022-11-20T11:09:04;3.91;99.99
68251;DHT22;55066;51.560;4.642;2022-11-20T11:11:34;4.05;99.99
68251;DHT22;55066;51.560;4.642;2022-11-20T11:14:07;4.10;99.99
68251;DHT22;55066;51.560;4.642;2022-11-20T11:16:33;4.17;99.99
68251;DHT22;55066;51.560;4.642;2022-11-20T11:19:14;4.18;99.99
68251;DHT22;55066;51.560;4.642;2022-11-20T11:21:46;4.37;99.99
68251;DHT22;55066;51.560;4.642;2022-11-20T11:24:29;4.29;99.99
68251;DHT22;55066;51.560;4.642;2022-11-20T11:26:56;4.46;99.99
68251;DHT22;55066;51.560;4.642;2022-11-20T11:29:22;4.41;99.99
68251;DHT22;55066;51.560;4.642;2022-11-20T11:31:49;4.72;99.99
68251;DHT22;55066;51.560;4.642;2022-11-20T11:34:16;4.90;99.99
68251;DHT22;55066;51.560;4.642;2022-11-20T11:36:51;4.97;99.99
68251;DHT22;55066;51.560;4.642;2022-11-20T11:39:19;5.00;99.99
68251;DHT22;55066;51.560;4.642;2022-11-20T11:41:47;4.98;99.38
68251;DHT22;55066;51.560;4.642;2022-11-20T11:44:19;5.20;99.59
68251;DHT22;55066;51.560;4.642;2022-11-20T11:47:05;5.13;99.99
68251;DHT22;55066;51.560;4.642;2022-11-20T11:49:33;5.17;99.18
68251;DHT22;55066;51.560;4.642;2022-11-20T11:52:13;5.22;99.99
68251;DHT22;55066;51.560;4.642;2022-11-20T11:54:49;5.21;99.99
68251;DHT22;55066;51.560;4.642;2022-11-20T12:07:53;5.42;98.31
68251;DHT22;55066;51.560;4.642;2022-11-20T12:12:55;5.66;99.99
68251;DHT22;55066;51.560;4.642;2022-11-20T12:15:33;5.69;99.99
68251;DHT22;55066;51.560;4.642;2022-11-20T12:17:59;5.60;99.99
68251;DHT22;55066;51.560;4.642;2022-11-20T12:20:35;5.56;99.99
68251;DHT22;55066;51.560;4.642;2022-11-20T12:23:16;5.48;99.99
68251;DHT22;55066;51.560;4.642;2022-11-20T12:25:44;5.51;99.99
68251;DHT22;55066;51.560;4.642;2022-11-20T12:31:26;5.53;99.99
68251;DHT22;55066;51.560;4.642;2022-11-20T12:45:03;5.73;99.99
68251;DHT22;55066;51.560;4.642;2022-11-20T12:53:07;6.16;99.99
68251;DHT22;55066;51.560;4.642;2022-11-20T12:59:07;5.94;99.99
68251;DHT22;55066;51.560;4.642;2022-11-20T13:07:35;5.81;99.99
68251;DHT22;55066;51.560;4.642;2022-11-20T13:10:00;5.81;99.99
68251;DHT22;55066;51.560;4.642;2022-11-20T13:12:44;5.83;99.99
68251;DHT22;55066;51.560;4.642;2022-11-20T13:15:35;5.73;99.99
68251;DHT22;55066;51.560;4.642;2022-11-20T13:18:09;5.70;99.99
68251;DHT22;55066;51.560;4.642;2022-11-20T13:20:35;5.70;99.99
68251;DHT22;55066;51.560;4.642;2022-11-20T13:23:01;5.67;99.99
68251;DHT22;55066;51.560;4.642;2022-11-20T13:25:34;5.63;99.99
68251;DHT22;55066;51.560;4.642;2022-11-20T13:28:04;5.56;99.99
68251;DHT22;55066;51.560;4.642;2022-11-20T13:30:31;5.55;99.99
68251;DHT22;55066;51.560;4.642;2022-11-20T13:33:00;5.65;99.99
68251;DHT22;55066;51.560;4.642;2022-11-20T13:35:41;5.66;99.99
68251;DHT22;55066;51.560;4.642;2022-11-20T13:40:36;5.56;99.99
68251;DHT22;55066;51.560;4.642;2022-11-20T13:43:19;5.55;99.99
68251;DHT22;55066;51.560;4.642;2022-11-20T13:46:06;5.56;99.99
68251;DHT22;55066;51.560;4.642;2022-11-20T13:48:46;5.52;99.99
68251;DHT22;55066;51.560;4.642;2022-11-20T13:54:20;5.56;99.99
68251;DHT22;55066;51.560;4.642;2022-11-20T13:59:58;5.56;99.99
68251;DHT22;55066;51.560;4.642;2022-11-20T14:02:26;5.58;99.99
68251;DHT22;55066;51.560;4.642;2022-11-20T14:04:54;5.66;99.99
68251;DHT22;55066;51.560;4.642;2022-11-20T14:07:24;5.58;99.99
68251;DHT22;55066;51.560;4.642;2022-11-20T14:09:52;5.69;99.99
68251;DHT22;55066;51.560;4.642;2022-11-20T14:12:21;5.79;99.99
68251;DHT22;55066;51.560;4.642;2022-11-20T14:14:52;5.79;99.99
68251;DHT22;55066;51.560;4.642;2022-11-20T14:17:29;5.85;99.99
68251;DHT22;55066;51.560;4.642;2022-11-20T14:19:58;5.81;99.99
68251;DHT22;55066;51.560;4.642;2022-11-20T14:22:26;5.76;99.99
68251;DHT22;55066;51.560;4.642;2022-11-20T14:25:25;5.80;99.99
68251;DHT22;55066;51.560;4.642;2022-11-20T14:27:57;5.89;99.99
68251;DHT22;55066;51.560;4.642;2022-11-20T14:30:47;5.85;99.99
68251;DHT22;55066;51.560;4.642;2022-11-20T14:33:14;5.91;99.99
68251;DHT22;55066;51.560;4.642;2022-11-20T14:35:49;6.00;99.99
68251;DHT22;55066;51.560;4.642;2022-11-20T14:38:18;5.91;99.99
68251;DHT22;55066;51.560;4.642;2022-11-20T14:40:44;5.87;99.99
68251;DHT22;55066;51.560;4.642;2022-11-20T14:43:24;5.93;99.99
68251;DHT22;55066;51.560;4.642;2022-11-20T14:46:05;5.96;99.99
68251;DHT22;55066;51.560;4.642;2022-11-20T14:48:37;6.16;99.99
68251;DHT22;55066;51.560;4.642;2022-11-20T14:51:03;6.17;99.99
68251;DHT22;55066;51.560;4.642;2022-11-20T14:53:28;6.29;99.99
68251;DHT22;55066;51.560;4.642;2022-11-20T14:55:57;6.22;99.99
68251;DHT22;55066;51.560;4.642;2022-11-20T14:58:24;6.38;99.99
68251;DHT22;55066;51.560;4.642;2022-11-20T15:00:59;6.39;99.99
68251;DHT22;55066;51.560;4.642;2022-11-20T15:03:39;6.48;99.99
68251;DHT22;55066;51.560;4.642;2022-11-20T15:06:11;6.41;99.99
68251;DHT22;55066;51.560;4.642;2022-11-20T15:08:37;6.41;99.99
68251;DHT22;55066;51.560;4.642;2022-11-20T15:11:03;6.41;99.99
68251;DHT22;55066;51.560;4.642;2022-11-20T15:13:36;6.52;99.99
68251;DHT22;55066;51.560;4.642;2022-11-20T15:16:04;6.57;99.99
68251;DHT22;55066;51.560;4.642;2022-11-20T15:18:39;6.46;99.99
68251;DHT22;55066;51.560;4.642;2022-11-20T15:21:11;6.62;99.99
68251;DHT22;55066;51.560;4.642;2022-11-20T15:23:37;6.63;99.99
68251;DHT22;55066;51.560;4.642;2022-11-20T15:26:06;6.61;99.99
68251;DHT22;55066;51.560;4.642;2022-11-20T15:28:37;6.65;99.99
68251;DHT22;55066;51.560;4.642;2022-11-20T15:31:04;6.62;99.99
68251;DHT22;55066;51.560;4.642;2022-11-20T15:33:31;6.69;99.99
68251;DHT22;55066;51.560;4.642;2022-11-20T15:35:57;6.73;99.99
68251;DHT22;55066;51.560;4.642;2022-11-20T15:38:23;6.73;99.99
68251;DHT22;55066;51.560;4.642;2022-11-20T15:40:49;6.71;99.99
68251;DHT22;55066;51.560;4.642;2022-11-20T15:43:14;6.75;99.99
68251;DHT22;55066;51.560;4.642;2022-11-20T15:45:43;6.57;99.99
68251;DHT22;55066;51.560;4.642;2022-11-20T15:48:31;6.61;99.99
68251;DHT22;55066;51.560;4.642;2022-11-20T15:53:34;6.77;99.99
68251;DHT22;55066;51.560;4.642;2022-11-20T15:55:59;6.80;99.99
68251;DHT22;55066;51.560;4.642;2022-11-20T15:58:25;6.77;99.99
68251;DHT22;55066;51.560;4.642;2022-11-20T16:00:51;6.80;99.99
68251;DHT22;55066;51.560;4.642;2022-11-20T16:03:17;6.82;99.99
68251;DHT22;55066;51.560;4.642;2022-11-20T16:05:43;6.86;99.99
68251;DHT22;55066;51.560;4.642;2022-11-20T16:08:09;6.86;99.99
68251;DHT22;55066;51.560;4.642;2022-11-20T16:10:35;6.87;99.99
68251;DHT22;55066;51.560;4.642;2022-11-20T16:13:01;6.87;99.99
68251;DHT22;55066;51.560;4.642;2022-11-20T16:15:50;6.87;99.99
68251;DHT22;55066;51.560;4.642;2022-11-20T16:18:19;7.03;99.99
68251;DHT22;55066;51.560;4.642;2022-11-20T16:20:47;7.01;99.99
68251;DHT22;55066;51.560;4.642;2022-11-20T16:23:13;7.08;99.99
68251;DHT22;55066;51.560;4.642;2022-11-20T16:25:40;7.12;99.99
68251;DHT22;55066;51.560;4.642;2022-11-20T16:28:06;7.18;99.99
68251;DHT22;55066;51.560;4.642;2022-11-20T16:30:32;7.18;99.99
68251;DHT22;55066;51.560;4.642;2022-11-20T16:32:58;7.25;99.99
68251;DHT22;55066;51.560;4.642;2022-11-20T16:35:28;7.20;99.99
68251;DHT22;55066;51.560;4.642;2022-11-20T16:37:55;7.24;99.99
68251;DHT22;55066;51.560;4.642;2022-11-20T16:40:20;7.29;99.99
68251;DHT22;55066;51.560;4.642;2022-11-20T16:42:46;7.31;99.99
68251;DHT22;55066;51.560;4.642;2022-11-20T16:45:11;7.39;99.99
68251;DHT22;55066;51.560;4.642;2022-11-20T16:47:36;7.25;99.99
68251;DHT22;55066;51.560;4.642;2022-11-20T16:50:03;7.17;99.99
68251;DHT22;55066;51.560;4.642;2022-11-20T16:52:29;7.44;99.99
68251;DHT22;55066;51.560;4.642;2022-11-20T16:54:55;7.25;99.99
68251;DHT22;55066;51.560;4.642;2022-11-20T16:57:20;7.42;99.99
68251;DHT22;55066;51.560;4.642;2022-11-20T16:59:47;7.28;99.99
68251;DHT22;55066;51.560;4.642;2022-11-20T17:02:13;7.20;99.99
68251;DHT22;55066;51.560;4.642;2022-11-20T17:04:38;7.17;99.99
68251;DHT22;55066;51.560;4.642;2022-11-20T17:07:04;7.15;99.99
68251;DHT22;55066;51.560;4.642;2022-11-20T17:09:29;7.21;99.99
68251;DHT22;55066;51.560;4.642;2022-11-20T17:11:55;7.14;99.99